sensor_id;sensor_type;location;lat;lon;timestamp;P1;durP1;ratioP1;P2;durP2;ratioP2
16516;SDS011;8371;52.272;9.746;2022-12-07T00:03:48;7.57;;;7.17;;
16516;SDS011;8371;52.272;9.746;2022-12-07T00:06:15;7.23;;;6.83;;
16516;SDS011;8371;52.272;9.746;2022-12-07T00:08:42;8.13;;;7.73;;
16516;SDS011;8371;52.272;9.746;2022-12-07T00:11:12;8.50;;;8.00;;
16516;SDS011;8371;52.272;9.746;2022-12-07T00:13:40;8.93;;;8.37;;
16516;SDS011;8371;52.272;9.746;2022-12-07T00:16:16;8.63;;;8.13;;
16516;SDS011;8371;52.272;9.746;2022-12-07T00:18:43;8.97;;;8.27;;
16516;SDS011;8371;52.272;9.746;2022-12-07T00:21:11;9.10;;;8.43;;
16516;SDS011;8371;52.272;9.746;2022-12-07T00:23:39;8.57;;;8.07;;
16516;SDS011;8371;52.272;9.746;2022-12-07T00:26:06;8.90;;;8.20;;
16516;SDS011;8371;52.272;9.746;2022-12-07T00:28:33;8.33;;;7.83;;
16516;SDS011;8371;52.272;9.746;2022-12-07T00:31:00;8.43;;;8.00;;
16516;SDS011;8371;52.272;9.746;2022-12-07T00:33:31;7.70;;;7.20;;
16516;SDS011;8371;52.272;9.746;2022-12-07T00:35:58;7.87;;;7.47;;
16516;SDS011;8371;52.272;9.746;2022-12-07T00:38:27;7.50;;;7.10;;
16516;SDS011;8371;52.272;9.746;2022-12-07T00:40:59;7.83;;;7.07;;
16516;SDS011;8371;52.272;9.746;2022-12-07T00:43:22;8.13;;;7.73;;
16516;SDS011;8371;52.272;9.746;2022-12-07T00:45:48;8.73;;;8.13;;
16516;SDS011;8371;52.272;9.746;2022-12-07T00:48:14;7.97;;;7.57;;
16516;SDS011;8371;52.272;9.746;2022-12-07T00:50:39;8.17;;;7.57;;
16516;SDS011;8371;52.272;9.746;2022-12-07T00:53:05;7.63;;;7.23;;
16516;SDS011;8371;52.272;9.746;2022-12-07T00:55:36;8.10;;;7.60;;
16516;SDS011;8371;52.272;9.746;2022-12-07T00:58:02;6.87;;;6.47;;
16516;SDS011;8371;52.272;9.746;2022-12-07T01:00:28;7.67;;;7.27;;
16516;SDS011;8371;52.272;9.746;2022-12-07T01:02:54;7.87;;;7.47;;
16516;SDS011;8371;52.272;9.746;2022-12-07T01:05:20;7.47;;;7.07;;
16516;SDS011;8371;52.272;9.746;2022-12-07T01:07:46;7.07;;;6.77;;
16516;SDS011;8371;52.272;9.746;2022-12-07T01:10:12;6.67;;;6.37;;
16516;SDS011;8371;52.272;9.746;2022-12-07T01:12:39;6.30;;;6.00;;
16516;SDS011;8371;52.272;9.746;2022-12-07T01:15:05;6.50;;;6.20;;
16516;SDS011;8371;52.272;9.746;2022-12-07T01:17:32;5.10;;;4.90;;
16516;SDS011;8371;52.272;9.746;2022-12-07T01:19:58;5.13;;;4.93;;
16516;SDS011;8371;52.272;9.746;2022-12-07T01:22:24;5.13;;;4.90;;
16516;SDS011;8371;52.272;9.746;2022-12-07T01:24:49;5.33;;;5.13;;
16516;SDS011;8371;52.272;9.746;2022-12-07T01:27:15;4.73;;;4.53;;
16516;SDS011;8371;52.272;9.746;2022-12-07T01:29:41;5.70;;;5.50;;
16516;SDS011;8371;52.272;9.746;2022-12-07T01:32:07;5.70;;;5.50;;
16516;SDS011;8371;52.272;9.746;2022-12-07T01:34:33;5.07;;;4.87;;
16516;SDS011;8371;52.272;9.746;2022-12-07T01:36:59;5.77;;;5.57;;
16516;SDS011;8371;52.272;9.746;2022-12-07T01:39:24;5.30;;;5.10;;
16516;SDS011;8371;52.272;9.746;2022-12-07T01:41:50;5.23;;;4.93;;
16516;SDS011;8371;52.272;9.746;2022-12-07T01:46:54;5.13;;;4.93;;
16516;SDS011;8371;52.272;9.746;2022-12-07T01:49:38;5.73;;;5.53;;
16516;SDS011;8371;52.272;9.746;2022-12-07T01:52:13;5.53;;;5.17;;
16516;SDS011;8371;52.272;9.746;2022-12-07T01:54:39;6.07;;;5.77;;
16516;SDS011;8371;52.272;9.746;2022-12-07T01:57:05;5.60;;;5.40;;
16516;SDS011;8371;52.272;9.746;2022-12-07T01:59:33;6.47;;;6.17;;
16516;SDS011;8371;52.272;9.746;2022-12-07T02:01:59;6.33;;;5.97;;
16516;SDS011;8371;52.272;9.746;2022-12-07T02:04:28;6.30;;;6.00;;
16516;SDS011;8371;52.272;9.746;2022-12-07T02:06:54;6.17;;;5.97;;
16516;SDS011;8371;52.272;9.746;2022-12-07T02:09:21;6.13;;;5.93;;
16516;SDS011;8371;52.272;9.746;2022-12-07T02:11:47;6.07;;;5.87;;
16516;SDS011;8371;52.272;9.746;2022-12-07T02:14:13;5.60;;;5.40;;
16516;SDS011;8371;52.272;9.746;2022-12-07T02:16:47;5.87;;;5.60;;
16516;SDS011;8371;52.272;9.746;2022-12-07T02:19:28;5.63;;;5.43;;
16516;SDS011;8371;52.272;9.746;2022-12-07T02:25:14;5.53;;;5.33;;
16516;SDS011;8371;52.272;9.746;2022-12-07T02:27:46;5.50;;;5.20;;
16516;SDS011;8371;52.272;9.746;2022-12-07T02:30:15;6.73;;;6.43;;
16516;SDS011;8371;52.272;9.746;2022-12-07T02:32:46;5.37;;;5.10;;
16516;SDS011;8371;52.272;9.746;2022-12-07T02:35:41;5.60;;;5.30;;
16516;SDS011;8371;52.272;9.746;2022-12-07T02:38:16;5.63;;;5.43;;
16516;SDS011;8371;52.272;9.746;2022-12-07T02:40:50;5.33;;;5.13;;
16516;SDS011;8371;52.272;9.746;2022-12-07T02:43:28;5.40;;;5.10;;
16516;SDS011;8371;52.272;9.746;2022-12-07T02:46:03;5.53;;;5.33;;
16516;SDS011;8371;52.272;9.746;2022-12-07T02:48:31;5.10;;;4.90;;
16516;SDS011;8371;52.272;9.746;2022-12-07T02:50:58;5.23;;;5.03;;
16516;SDS011;8371;52.272;9.746;2022-12-07T02:53:37;5.43;;;5.23;;
16516;SDS011;8371;52.272;9.746;2022-12-07T02:56:51;5.07;;;4.87;;
16516;SDS011;8371;52.272;9.746;2022-12-07T03:01:10;4.73;;;4.43;;
16516;SDS011;8371;52.272;9.746;2022-12-07T03:03:58;5.20;;;4.90;;
16516;SDS011;8371;52.272;9.746;2022-12-07T03:06:30;4.57;;;4.37;;
16516;SDS011;8371;52.272;9.746;2022-12-07T03:08:56;5.17;;;4.97;;
16516;SDS011;8371;52.272;9.746;2022-12-07T03:11:30;5.13;;;4.90;;
16516;SDS011;8371;52.272;9.746;2022-12-07T03:14:13;5.00;;;4.80;;
16516;SDS011;8371;52.272;9.746;2022-12-07T03:16:44;5.00;;;4.80;;
16516;SDS011;8371;52.272;9.746;2022-12-07T03:19:17;5.37;;;4.87;;
16516;SDS011;8371;52.272;9.746;2022-12-07T03:21:56;5.27;;;4.97;;
16516;SDS011;8371;52.272;9.746;2022-12-07T03:24:25;4.67;;;4.50;;
16516;SDS011;8371;52.272;9.746;2022-12-07T03:27:06;4.90;;;4.70;;
16516;SDS011;8371;52.272;9.746;2022-12-07T03:29:38;5.60;;;5.30;;
16516;SDS011;8371;52.272;9.746;2022-12-07T03:34:53;4.87;;;4.67;;
16516;SDS011;8371;52.272;9.746;2022-12-07T03:37:23;5.27;;;5.07;;
16516;SDS011;8371;52.272;9.746;2022-12-07T03:42:28;4.87;;;4.53;;
16516;SDS011;8371;52.272;9.746;2022-12-07T03:44:56;5.07;;;4.67;;
16516;SDS011;8371;52.272;9.746;2022-12-07T03:47:35;4.80;;;4.50;;
16516;SDS011;8371;52.272;9.746;2022-12-07T03:50:19;4.77;;;4.57;;
16516;SDS011;8371;52.272;9.746;2022-12-07T03:53:18;3.77;;;3.67;;
16516;SDS011;8371;52.272;9.746;2022-12-07T03:55:48;3.93;;;3.77;;
16516;SDS011;8371;52.272;9.746;2022-12-07T03:58:15;3.53;;;3.37;;
16516;SDS011;8371;52.272;9.746;2022-12-07T04:00:43;3.37;;;3.27;;
16516;SDS011;8371;52.272;9.746;2022-12-07T04:03:10;3.73;;;3.53;;
16516;SDS011;8371;52.272;9.746;2022-12-07T04:05:36;3.83;;;3.53;;
16516;SDS011;8371;52.272;9.746;2022-12-07T04:08:02;3.63;;;3.43;;
16516;SDS011;8371;52.272;9.746;2022-12-07T04:10:28;3.73;;;3.53;;
16516;SDS011;8371;52.272;9.746;2022-12-07T04:12:54;3.53;;;3.33;;
16516;SDS011;8371;52.272;9.746;2022-12-07T04:15:20;4.07;;;3.87;;
16516;SDS011;8371;52.272;9.746;2022-12-07T04:17:46;3.93;;;3.63;;
16516;SDS011;8371;52.272;9.746;2022-12-07T04:20:12;4.20;;;4.00;;
16516;SDS011;8371;52.272;9.746;2022-12-07T04:22:38;3.67;;;3.57;;
16516;SDS011;8371;52.272;9.746;2022-12-07T04:25:04;4.40;;;4.10;;
16516;SDS011;8371;52.272;9.746;2022-12-07T04:27:30;4.03;;;3.83;;
16516;SDS011;8371;52.272;9.746;2022-12-07T04:29:56;5.20;;;4.63;;
16516;SDS011;8371;52.272;9.746;2022-12-07T04:32:22;4.67;;;4.27;;
16516;SDS011;8371;52.272;9.746;2022-12-07T04:34:48;4.20;;;4.00;;
16516;SDS011;8371;52.272;9.746;2022-12-07T04:37:14;5.07;;;4.63;;
16516;SDS011;8371;52.272;9.746;2022-12-07T04:39:40;4.77;;;4.50;;
16516;SDS011;8371;52.272;9.746;2022-12-07T04:42:05;4.53;;;4.30;;
16516;SDS011;8371;52.272;9.746;2022-12-07T04:44:31;4.80;;;4.60;;
16516;SDS011;8371;52.272;9.746;2022-12-07T04:46:57;4.10;;;3.90;;
16516;SDS011;8371;52.272;9.746;2022-12-07T04:49:23;4.90;;;4.70;;
16516;SDS011;8371;52.272;9.746;2022-12-07T04:51:50;4.63;;;4.33;;
16516;SDS011;8371;52.272;9.746;2022-12-07T04:54:16;4.40;;;4.10;;
16516;SDS011;8371;52.272;9.746;2022-12-07T04:56:42;3.80;;;3.70;;
16516;SDS011;8371;52.272;9.746;2022-12-07T04:59:09;3.90;;;3.70;;
16516;SDS011;8371;52.272;9.746;2022-12-07T05:01:36;4.70;;;4.40;;
16516;SDS011;8371;52.272;9.746;2022-12-07T05:04:02;4.90;;;4.50;;
16516;SDS011;8371;52.272;9.746;2022-12-07T05:06:28;4.07;;;3.87;;
16516;SDS011;8371;52.272;9.746;2022-12-07T05:08:53;4.50;;;4.30;;
16516;SDS011;8371;52.272;9.746;2022-12-07T05:11:19;3.83;;;3.53;;
16516;SDS011;8371;52.272;9.746;2022-12-07T05:14:04;3.13;;;2.93;;
16516;SDS011;8371;52.272;9.746;2022-12-07T05:16:41;4.00;;;3.80;;
16516;SDS011;8371;52.272;9.746;2022-12-07T05:19:07;3.27;;;3.07;;
16516;SDS011;8371;52.272;9.746;2022-12-07T05:21:34;3.30;;;3.10;;
16516;SDS011;8371;52.272;9.746;2022-12-07T05:24:01;2.97;;;2.87;;
16516;SDS011;8371;52.272;9.746;2022-12-07T05:26:27;2.90;;;2.80;;
16516;SDS011;8371;52.272;9.746;2022-12-07T05:28:53;3.53;;;3.23;;
16516;SDS011;8371;52.272;9.746;2022-12-07T05:31:20;2.90;;;2.80;;
16516;SDS011;8371;52.272;9.746;2022-12-07T05:33:47;2.70;;;2.60;;
16516;SDS011;8371;52.272;9.746;2022-12-07T05:36:12;2.80;;;2.70;;
16516;SDS011;8371;52.272;9.746;2022-12-07T05:38:38;3.53;;;3.23;;
16516;SDS011;8371;52.272;9.746;2022-12-07T05:41:04;2.47;;;2.37;;
16516;SDS011;8371;52.272;9.746;2022-12-07T05:43:31;2.20;;;2.10;;
16516;SDS011;8371;52.272;9.746;2022-12-07T05:45:58;2.33;;;2.23;;
16516;SDS011;8371;52.272;9.746;2022-12-07T05:48:24;2.77;;;2.50;;
16516;SDS011;8371;52.272;9.746;2022-12-07T05:50:51;2.67;;;2.57;;
16516;SDS011;8371;52.272;9.746;2022-12-07T05:53:17;2.57;;;2.37;;
16516;SDS011;8371;52.272;9.746;2022-12-07T05:55:44;2.90;;;2.80;;
16516;SDS011;8371;52.272;9.746;2022-12-07T05:58:10;2.80;;;2.70;;
16516;SDS011;8371;52.272;9.746;2022-12-07T06:00:55;3.20;;;3.03;;
16516;SDS011;8371;52.272;9.746;2022-12-07T06:03:21;2.60;;;2.50;;
16516;SDS011;8371;52.272;9.746;2022-12-07T06:05:47;2.53;;;2.43;;
16516;SDS011;8371;52.272;9.746;2022-12-07T06:08:13;2.63;;;2.43;;
16516;SDS011;8371;52.272;9.746;2022-12-07T06:10:40;2.30;;;2.20;;
16516;SDS011;8371;52.272;9.746;2022-12-07T06:13:07;2.57;;;2.37;;
16516;SDS011;8371;52.272;9.746;2022-12-07T06:15:35;2.53;;;2.40;;
16516;SDS011;8371;52.272;9.746;2022-12-07T06:18:01;2.40;;;2.30;;
16516;SDS011;8371;52.272;9.746;2022-12-07T06:20:27;2.37;;;2.17;;
16516;SDS011;8371;52.272;9.746;2022-12-07T06:22:53;2.53;;;2.43;;
16516;SDS011;8371;52.272;9.746;2022-12-07T06:25:18;2.33;;;2.23;;
16516;SDS011;8371;52.272;9.746;2022-12-07T06:27:44;1.60;;;1.57;;
16516;SDS011;8371;52.272;9.746;2022-12-07T06:30:10;2.77;;;1.90;;
16516;SDS011;8371;52.272;9.746;2022-12-07T06:32:36;2.70;;;2.40;;
16516;SDS011;8371;52.272;9.746;2022-12-07T06:35:03;2.33;;;1.80;;
16516;SDS011;8371;52.272;9.746;2022-12-07T06:37:29;1.93;;;1.90;;
16516;SDS011;8371;52.272;9.746;2022-12-07T06:39:55;2.27;;;2.17;;
16516;SDS011;8371;52.272;9.746;2022-12-07T06:42:21;2.03;;;1.93;;
16516;SDS011;8371;52.272;9.746;2022-12-07T06:44:47;5.93;;;1.90;;
16516;SDS011;8371;52.272;9.746;2022-12-07T06:47:13;2.07;;;1.90;;
16516;SDS011;8371;52.272;9.746;2022-12-07T06:49:38;2.00;;;1.90;;
16516;SDS011;8371;52.272;9.746;2022-12-07T06:52:04;1.80;;;1.80;;
16516;SDS011;8371;52.272;9.746;2022-12-07T06:54:31;1.93;;;1.83;;
16516;SDS011;8371;52.272;9.746;2022-12-07T06:56:56;1.70;;;1.60;;
16516;SDS011;8371;52.272;9.746;2022-12-07T06:59:22;1.97;;;1.90;;
16516;SDS011;8371;52.272;9.746;2022-12-07T07:01:48;1.73;;;1.73;;
16516;SDS011;8371;52.272;9.746;2022-12-07T07:04:13;1.83;;;1.80;;
16516;SDS011;8371;52.272;9.746;2022-12-07T07:06:39;1.50;;;1.50;;
16516;SDS011;8371;52.272;9.746;2022-12-07T07:09:05;2.10;;;2.00;;
16516;SDS011;8371;52.272;9.746;2022-12-07T07:11:30;1.67;;;1.57;;
16516;SDS011;8371;52.272;9.746;2022-12-07T07:13:56;1.50;;;1.40;;
16516;SDS011;8371;52.272;9.746;2022-12-07T07:16:23;1.30;;;1.20;;
16516;SDS011;8371;52.272;9.746;2022-12-07T07:18:49;1.47;;;1.47;;
16516;SDS011;8371;52.272;9.746;2022-12-07T07:21:15;1.37;;;1.37;;
16516;SDS011;8371;52.272;9.746;2022-12-07T07:23:41;1.03;;;1.03;;
16516;SDS011;8371;52.272;9.746;2022-12-07T07:26:07;1.40;;;1.30;;
16516;SDS011;8371;52.272;9.746;2022-12-07T07:28:32;1.40;;;1.30;;
16516;SDS011;8371;52.272;9.746;2022-12-07T07:30:58;1.10;;;1.00;;
16516;SDS011;8371;52.272;9.746;2022-12-07T07:33:24;1.53;;;1.50;;
16516;SDS011;8371;52.272;9.746;2022-12-07T07:35:49;1.43;;;1.10;;
16516;SDS011;8371;52.272;9.746;2022-12-07T07:38:15;1.13;;;1.03;;
16516;SDS011;8371;52.272;9.746;2022-12-07T07:40:41;1.00;;;1.00;;
16516;SDS011;8371;52.272;9.746;2022-12-07T07:43:06;1.03;;;1.03;;
16516;SDS011;8371;52.272;9.746;2022-12-07T07:45:32;1.47;;;1.27;;
16516;SDS011;8371;52.272;9.746;2022-12-07T07:47:58;1.00;;;1.00;;
16516;SDS011;8371;52.272;9.746;2022-12-07T07:50:24;0.83;;;0.83;;
16516;SDS011;8371;52.272;9.746;2022-12-07T07:52:50;0.90;;;0.87;;
16516;SDS011;8371;52.272;9.746;2022-12-07T07:55:16;1.50;;;0.93;;
16516;SDS011;8371;52.272;9.746;2022-12-07T07:57:42;1.53;;;1.27;;
16516;SDS011;8371;52.272;9.746;2022-12-07T08:00:08;1.07;;;0.97;;
16516;SDS011;8371;52.272;9.746;2022-12-07T08:02:37;0.83;;;0.83;;
16516;SDS011;8371;52.272;9.746;2022-12-07T08:05:02;0.80;;;0.80;;
16516;SDS011;8371;52.272;9.746;2022-12-07T08:07:28;1.33;;;1.23;;
16516;SDS011;8371;52.272;9.746;2022-12-07T08:09:54;0.60;;;0.60;;
16516;SDS011;8371;52.272;9.746;2022-12-07T08:12:20;0.87;;;0.87;;
16516;SDS011;8371;52.272;9.746;2022-12-07T08:14:45;0.90;;;0.90;;
16516;SDS011;8371;52.272;9.746;2022-12-07T08:17:12;0.90;;;0.90;;
16516;SDS011;8371;52.272;9.746;2022-12-07T08:19:37;0.60;;;0.60;;
16516;SDS011;8371;52.272;9.746;2022-12-07T08:22:03;0.60;;;0.60;;
16516;SDS011;8371;52.272;9.746;2022-12-07T08:24:29;0.93;;;0.70;;
16516;SDS011;8371;52.272;9.746;2022-12-07T08:26:55;1.80;;;0.80;;
16516;SDS011;8371;52.272;9.746;2022-12-07T08:29:21;1.37;;;0.93;;
16516;SDS011;8371;52.272;9.746;2022-12-07T08:31:46;1.53;;;1.00;;
16516;SDS011;8371;52.272;9.746;2022-12-07T08:34:12;0.70;;;0.70;;
16516;SDS011;8371;52.272;9.746;2022-12-07T08:36:38;1.10;;;1.10;;
16516;SDS011;8371;52.272;9.746;2022-12-07T08:39:05;1.27;;;0.90;;
16516;SDS011;8371;52.272;9.746;2022-12-07T08:41:31;1.17;;;1.17;;
16516;SDS011;8371;52.272;9.746;2022-12-07T08:43:57;2.60;;;1.10;;
16516;SDS011;8371;52.272;9.746;2022-12-07T08:46:24;0.83;;;0.83;;
16516;SDS011;8371;52.272;9.746;2022-12-07T08:51:21;1.00;;;1.00;;
16516;SDS011;8371;52.272;9.746;2022-12-07T08:53:48;1.70;;;0.70;;
16516;SDS011;8371;52.272;9.746;2022-12-07T08:56:16;0.80;;;0.80;;
16516;SDS011;8371;52.272;9.746;2022-12-07T08:58:42;1.03;;;1.03;;
16516;SDS011;8371;52.272;9.746;2022-12-07T09:01:08;1.27;;;1.00;;
16516;SDS011;8371;52.272;9.746;2022-12-07T09:03:33;1.03;;;1.03;;
16516;SDS011;8371;52.272;9.746;2022-12-07T09:05:59;0.80;;;0.80;;
16516;SDS011;8371;52.272;9.746;2022-12-07T09:08:30;0.80;;;0.80;;
16516;SDS011;8371;52.272;9.746;2022-12-07T09:10:58;1.07;;;0.70;;
16516;SDS011;8371;52.272;9.746;2022-12-07T09:13:24;0.83;;;0.80;;
16516;SDS011;8371;52.272;9.746;2022-12-07T09:15:49;0.63;;;0.63;;
16516;SDS011;8371;52.272;9.746;2022-12-07T09:18:15;0.47;;;0.47;;
16516;SDS011;8371;52.272;9.746;2022-12-07T09:20:41;0.77;;;0.77;;
16516;SDS011;8371;52.272;9.746;2022-12-07T09:23:06;1.63;;;1.53;;
16516;SDS011;8371;52.272;9.746;2022-12-07T09:25:33;0.70;;;0.70;;
16516;SDS011;8371;52.272;9.746;2022-12-07T09:27:59;0.60;;;0.60;;
16516;SDS011;8371;52.272;9.746;2022-12-07T09:30:27;0.60;;;0.60;;
16516;SDS011;8371;52.272;9.746;2022-12-07T09:32:54;0.73;;;0.73;;
16516;SDS011;8371;52.272;9.746;2022-12-07T09:35:21;1.10;;;0.80;;
16516;SDS011;8371;52.272;9.746;2022-12-07T09:37:47;1.20;;;0.73;;
16516;SDS011;8371;52.272;9.746;2022-12-07T09:40:13;0.60;;;0.60;;
16516;SDS011;8371;52.272;9.746;2022-12-07T09:42:41;1.03;;;0.60;;
16516;SDS011;8371;52.272;9.746;2022-12-07T09:45:21;1.03;;;0.50;;
16516;SDS011;8371;52.272;9.746;2022-12-07T09:47:51;0.70;;;0.70;;
16516;SDS011;8371;52.272;9.746;2022-12-07T09:50:19;0.60;;;0.60;;
16516;SDS011;8371;52.272;9.746;2022-12-07T09:52:46;0.90;;;0.90;;
16516;SDS011;8371;52.272;9.746;2022-12-07T09:55:15;0.80;;;0.73;;
16516;SDS011;8371;52.272;9.746;2022-12-07T09:57:43;1.30;;;0.63;;
16516;SDS011;8371;52.272;9.746;2022-12-07T10:02:44;0.63;;;0.63;;
16516;SDS011;8371;52.272;9.746;2022-12-07T10:05:17;0.73;;;0.73;;
16516;SDS011;8371;52.272;9.746;2022-12-07T10:07:45;0.77;;;0.50;;
16516;SDS011;8371;52.272;9.746;2022-12-07T10:10:15;0.47;;;0.47;;
16516;SDS011;8371;52.272;9.746;2022-12-07T10:12:53;0.70;;;0.70;;
16516;SDS011;8371;52.272;9.746;2022-12-07T10:15:37;0.63;;;0.63;;
16516;SDS011;8371;52.272;9.746;2022-12-07T10:31:51;1.23;;;0.63;;
16516;SDS011;8371;52.272;9.746;2022-12-07T10:34:22;0.93;;;0.67;;
16516;SDS011;8371;52.272;9.746;2022-12-07T10:36:55;0.43;;;0.43;;
16516;SDS011;8371;52.272;9.746;2022-12-07T10:39:46;0.50;;;0.50;;
16516;SDS011;8371;52.272;9.746;2022-12-07T10:45:07;0.40;;;0.40;;
16516;SDS011;8371;52.272;9.746;2022-12-07T10:53:12;0.80;;;0.80;;
16516;SDS011;8371;52.272;9.746;2022-12-07T11:01:03;1.67;;;0.70;;
16516;SDS011;8371;52.272;9.746;2022-12-07T11:06:34;1.37;;;0.80;;
16516;SDS011;8371;52.272;9.746;2022-12-07T11:12:04;0.70;;;0.70;;
16516;SDS011;8371;52.272;9.746;2022-12-07T11:14:44;1.50;;;0.60;;
16516;SDS011;8371;52.272;9.746;2022-12-07T11:17:20;2.60;;;0.93;;
16516;SDS011;8371;52.272;9.746;2022-12-07T11:22:19;0.87;;;0.87;;
16516;SDS011;8371;52.272;9.746;2022-12-07T11:24:55;1.97;;;0.97;;
16516;SDS011;8371;52.272;9.746;2022-12-07T11:27:37;0.80;;;0.80;;
16516;SDS011;8371;52.272;9.746;2022-12-07T11:35:43;2.27;;;0.67;;
16516;SDS011;8371;52.272;9.746;2022-12-07T11:38:26;1.60;;;0.87;;
16516;SDS011;8371;52.272;9.746;2022-12-07T11:40:53;2.50;;;1.27;;
16516;SDS011;8371;52.272;9.746;2022-12-07T11:43:26;0.90;;;0.70;;
16516;SDS011;8371;52.272;9.746;2022-12-07T11:45:59;0.77;;;0.67;;
16516;SDS011;8371;52.272;9.746;2022-12-07T11:48:33;0.70;;;0.70;;
16516;SDS011;8371;52.272;9.746;2022-12-07T11:51:04;0.77;;;0.70;;
16516;SDS011;8371;52.272;9.746;2022-12-07T11:56:09;1.13;;;0.50;;
16516;SDS011;8371;52.272;9.746;2022-12-07T12:02:10;2.10;;;0.73;;
16516;SDS011;8371;52.272;9.746;2022-12-07T12:06:43;0.67;;;0.67;;
16516;SDS011;8371;52.272;9.746;2022-12-07T12:15:09;0.70;;;0.70;;
16516;SDS011;8371;52.272;9.746;2022-12-07T12:20:29;0.70;;;0.57;;
16516;SDS011;8371;52.272;9.746;2022-12-07T12:25:45;0.70;;;0.70;;
16516;SDS011;8371;52.272;9.746;2022-12-07T12:28:24;1.20;;;1.10;;
16516;SDS011;8371;52.272;9.746;2022-12-07T12:33:45;0.73;;;0.70;;
16516;SDS011;8371;52.272;9.746;2022-12-07T12:46:51;2.33;;;1.00;;
16516;SDS011;8371;52.272;9.746;2022-12-07T12:51:54;1.33;;;0.90;;
16516;SDS011;8371;52.272;9.746;2022-12-07T12:54:23;1.33;;;0.70;;
16516;SDS011;8371;52.272;9.746;2022-12-07T13:15:43;1.17;;;0.80;;
16516;SDS011;8371;52.272;9.746;2022-12-07T13:20:53;0.97;;;0.90;;
16516;SDS011;8371;52.272;9.746;2022-12-07T13:23:22;0.60;;;0.60;;
16516;SDS011;8371;52.272;9.746;2022-12-07T13:26:00;2.10;;;0.73;;
16516;SDS011;8371;52.272;9.746;2022-12-07T13:28:47;0.60;;;0.60;;
16516;SDS011;8371;52.272;9.746;2022-12-07T13:31:34;1.13;;;0.60;;
16516;SDS011;8371;52.272;9.746;2022-12-07T13:34:26;0.93;;;0.70;;
16516;SDS011;8371;52.272;9.746;2022-12-07T13:36:50;0.97;;;0.87;;
16516;SDS011;8371;52.272;9.746;2022-12-07T13:39:18;0.77;;;0.57;;
16516;SDS011;8371;52.272;9.746;2022-12-07T13:41:55;1.13;;;1.07;;
16516;SDS011;8371;52.272;9.746;2022-12-07T13:44:20;1.20;;;0.87;;
16516;SDS011;8371;52.272;9.746;2022-12-07T13:49:29;1.03;;;0.60;;
16516;SDS011;8371;52.272;9.746;2022-12-07T13:54:47;0.80;;;0.80;;
16516;SDS011;8371;52.272;9.746;2022-12-07T13:57:15;0.77;;;0.67;;
16516;SDS011;8371;52.272;9.746;2022-12-07T13:59:42;1.13;;;0.87;;
16516;SDS011;8371;52.272;9.746;2022-12-07T14:05:05;0.83;;;0.60;;
16516;SDS011;8371;52.272;9.746;2022-12-07T14:07:48;1.67;;;0.70;;
16516;SDS011;8371;52.272;9.746;2022-12-07T14:10:32;0.67;;;0.67;;
16516;SDS011;8371;52.272;9.746;2022-12-07T14:13:18;1.07;;;0.97;;
16516;SDS011;8371;52.272;9.746;2022-12-07T14:15:44;0.87;;;0.83;;
16516;SDS011;8371;52.272;9.746;2022-12-07T14:18:24;0.77;;;0.63;;
16516;SDS011;8371;52.272;9.746;2022-12-07T14:21:02;0.73;;;0.73;;
16516;SDS011;8371;52.272;9.746;2022-12-07T14:23:30;0.97;;;0.63;;
16516;SDS011;8371;52.272;9.746;2022-12-07T14:26:04;1.13;;;0.70;;
16516;SDS011;8371;52.272;9.746;2022-12-07T14:28:32;1.27;;;0.60;;
16516;SDS011;8371;52.272;9.746;2022-12-07T14:30:59;0.70;;;0.70;;
16516;SDS011;8371;52.272;9.746;2022-12-07T14:33:26;0.60;;;0.60;;
16516;SDS011;8371;52.272;9.746;2022-12-07T14:35:53;0.90;;;0.57;;
16516;SDS011;8371;52.272;9.746;2022-12-07T14:38:23;0.73;;;0.73;;
16516;SDS011;8371;52.272;9.746;2022-12-07T14:40:50;1.50;;;0.83;;
16516;SDS011;8371;52.272;9.746;2022-12-07T14:43:18;1.07;;;0.80;;
16516;SDS011;8371;52.272;9.746;2022-12-07T14:45:45;0.80;;;0.80;;
16516;SDS011;8371;52.272;9.746;2022-12-07T14:48:12;0.80;;;0.80;;
16516;SDS011;8371;52.272;9.746;2022-12-07T14:50:43;0.87;;;0.70;;
16516;SDS011;8371;52.272;9.746;2022-12-07T14:53:15;0.40;;;0.40;;
16516;SDS011;8371;52.272;9.746;2022-12-07T14:55:39;0.43;;;0.33;;
16516;SDS011;8371;52.272;9.746;2022-12-07T14:58:05;0.40;;;0.40;;
16516;SDS011;8371;52.272;9.746;2022-12-07T15:00:31;1.70;;;0.80;;
16516;SDS011;8371;52.272;9.746;2022-12-07T15:02:58;1.33;;;0.80;;
16516;SDS011;8371;52.272;9.746;2022-12-07T15:05:24;1.70;;;0.70;;
16516;SDS011;8371;52.272;9.746;2022-12-07T15:07:53;0.90;;;0.60;;
16516;SDS011;8371;52.272;9.746;2022-12-07T15:10:20;0.50;;;0.50;;
16516;SDS011;8371;52.272;9.746;2022-12-07T15:12:48;0.50;;;0.50;;
16516;SDS011;8371;52.272;9.746;2022-12-07T15:15:14;0.60;;;0.60;;
16516;SDS011;8371;52.272;9.746;2022-12-07T15:17:40;0.50;;;0.50;;
16516;SDS011;8371;52.272;9.746;2022-12-07T15:20:08;0.63;;;0.63;;
16516;SDS011;8371;52.272;9.746;2022-12-07T15:22:38;0.73;;;0.53;;
16516;SDS011;8371;52.272;9.746;2022-12-07T15:25:04;0.50;;;0.50;;
16516;SDS011;8371;52.272;9.746;2022-12-07T15:27:31;1.47;;;0.60;;
16516;SDS011;8371;52.272;9.746;2022-12-07T15:29:57;1.17;;;1.00;;
16516;SDS011;8371;52.272;9.746;2022-12-07T15:32:23;1.90;;;0.77;;
16516;SDS011;8371;52.272;9.746;2022-12-07T15:34:48;1.37;;;0.47;;
16516;SDS011;8371;52.272;9.746;2022-12-07T15:37:15;1.00;;;0.93;;
16516;SDS011;8371;52.272;9.746;2022-12-07T15:39:41;0.50;;;0.50;;
16516;SDS011;8371;52.272;9.746;2022-12-07T15:42:07;0.63;;;0.60;;
16516;SDS011;8371;52.272;9.746;2022-12-07T15:44:33;0.87;;;0.47;;
16516;SDS011;8371;52.272;9.746;2022-12-07T15:47:17;0.70;;;0.70;;
16516;SDS011;8371;52.272;9.746;2022-12-07T15:49:43;1.23;;;0.73;;
16516;SDS011;8371;52.272;9.746;2022-12-07T15:52:09;0.70;;;0.70;;
16516;SDS011;8371;52.272;9.746;2022-12-07T15:54:34;0.43;;;0.43;;
16516;SDS011;8371;52.272;9.746;2022-12-07T15:57:00;0.93;;;0.47;;
16516;SDS011;8371;52.272;9.746;2022-12-07T15:59:27;1.00;;;0.43;;
16516;SDS011;8371;52.272;9.746;2022-12-07T16:01:53;0.60;;;0.57;;
16516;SDS011;8371;52.272;9.746;2022-12-07T16:04:20;1.10;;;0.83;;
16516;SDS011;8371;52.272;9.746;2022-12-07T16:06:45;2.80;;;0.70;;
16516;SDS011;8371;52.272;9.746;2022-12-07T16:09:11;0.93;;;0.50;;
16516;SDS011;8371;52.272;9.746;2022-12-07T16:11:37;0.87;;;0.87;;
16516;SDS011;8371;52.272;9.746;2022-12-07T16:14:03;0.90;;;0.90;;
16516;SDS011;8371;52.272;9.746;2022-12-07T16:16:29;1.53;;;0.67;;
16516;SDS011;8371;52.272;9.746;2022-12-07T16:18:57;0.73;;;0.73;;
16516;SDS011;8371;52.272;9.746;2022-12-07T16:21:23;2.60;;;1.07;;
16516;SDS011;8371;52.272;9.746;2022-12-07T16:23:48;1.60;;;0.57;;
16516;SDS011;8371;52.272;9.746;2022-12-07T16:26:19;1.30;;;0.90;;
16516;SDS011;8371;52.272;9.746;2022-12-07T16:28:43;1.13;;;0.80;;
16516;SDS011;8371;52.272;9.746;2022-12-07T16:31:11;2.80;;;0.87;;
16516;SDS011;8371;52.272;9.746;2022-12-07T16:33:39;0.60;;;0.60;;
16516;SDS011;8371;52.272;9.746;2022-12-07T16:36:07;0.70;;;0.70;;
16516;SDS011;8371;52.272;9.746;2022-12-07T16:38:34;1.03;;;1.00;;
16516;SDS011;8371;52.272;9.746;2022-12-07T16:41:01;1.33;;;0.97;;
16516;SDS011;8371;52.272;9.746;2022-12-07T16:43:26;1.10;;;1.00;;
16516;SDS011;8371;52.272;9.746;2022-12-07T16:45:52;0.90;;;0.90;;
16516;SDS011;8371;52.272;9.746;2022-12-07T16:48:18;1.30;;;0.80;;
16516;SDS011;8371;52.272;9.746;2022-12-07T16:50:44;0.50;;;0.50;;
16516;SDS011;8371;52.272;9.746;2022-12-07T16:53:11;0.87;;;0.87;;
16516;SDS011;8371;52.272;9.746;2022-12-07T16:55:38;1.80;;;0.90;;
16516;SDS011;8371;52.272;9.746;2022-12-07T16:58:05;0.83;;;0.83;;
16516;SDS011;8371;52.272;9.746;2022-12-07T17:00:31;0.70;;;0.70;;
16516;SDS011;8371;52.272;9.746;2022-12-07T17:02:57;1.10;;;1.10;;
16516;SDS011;8371;52.272;9.746;2022-12-07T17:05:24;2.37;;;1.93;;
16516;SDS011;8371;52.272;9.746;2022-12-07T17:07:52;1.47;;;1.37;;
16516;SDS011;8371;52.272;9.746;2022-12-07T17:10:17;1.53;;;1.23;;
16516;SDS011;8371;52.272;9.746;2022-12-07T17:12:43;1.20;;;1.07;;
16516;SDS011;8371;52.272;9.746;2022-12-07T17:15:09;1.50;;;1.40;;
16516;SDS011;8371;52.272;9.746;2022-12-07T17:17:46;1.00;;;1.00;;